Aviation Digital Data Service (ADDS)

Output produced by METARs form (0610 UTC 25 June 2018)
found at http://www.aviationweather.gov/adds/metars/
 
TAF SLCO 250450Z 2506/2606 00000KT 9999 FEW020 SCT070 TX32/2520Z TN19 /2510Z 
     BECMG 2514/2517 33008KT SCT020
       
SLCB 250600Z 14003KT 9999 NSC 10/04 Q1025
TAF SLCB 250450Z 2506/2606 00000KT 9999 FEW030 TX26/2519Z TN06/2511Z 
     BECMG 2514/2516 25010KT 
     BECMG 2602/2604 00000KT
       
SLLP 250600Z 10005KT 4000E VCFG FEW002 BKN200 M01/M02 Q1037
TAF SLLP 250450Z 2506/2606 11005KT 3000E VCFG FEW002 TX15/2520Z TNM05 /2510Z 
     PROB40 
     TEMPO 2507/2510 0800 PRFG 
     BECMG 2512/2514 9999 NSW SCT017 
     TEMPO 2518/2521 30012KT
       
TAF SLPS 250450Z 2506/2606 00000KT 9999 NSC TX32/2520Z TN17/2510Z 
     BECMG 2515/2518 VRB02KT SCT020
       
TAF SLET 250450Z 2506/2606 VRB02KT 9999 SCT020 BKN070 TX26/2520Z TN15 /2511Z 
     BECMG 2511/2514 30005KT SCT023 BKN080 
     TEMPO 2515/2518 33018KT 
     BECMG 2522/2602 VRB02KT SCT017 BKN070
       
SLVR 250600Z 18003KT 9999 SCT022 BKN070 16/14 Q1015
TAF SLVR 250450Z 2506/2606 VRB02KT 9999 SCT020 BKN070 TX26/2520Z TN15 /2511Z 
     BECMG 2511/2514 30005KT SCT023 BKN080 
     TEMPO 2515/2518 33018KT 
     BECMG 2522/2602 VRB02KT SCT017 BKN070
       
SLTJ 250300Z 00000KT 9999 NSC 07/06 Q1017
TAF SLTJ 250450Z 2506/2606 00000KT 9999 NSC TX24/2519Z TN06/2511Z 
     BECMG 2517/2519 14010KT 
     BECMG 2602/2604 00000KT
       
TAF SLTR 250450Z 2506/2606 00000KT 9999 FEW017 SCT070 TX31/2520Z TN18 /2510Z 
     BECMG 2514/2517 33008KT SCT017